Weather observations for the past three days for
Marion - Williamson County Regional Airport
| Date | Time (cdt) | Wind (mph) | Vis. (mi.) | Weather | Sky Cond. | Temperature (ºF) | Relative Humidity | Wind Chill (°F) | Heat Index (°F) | Pressure | Precipitation (in) | ||||||
|---|---|---|---|---|---|---|---|---|---|---|---|---|---|---|---|---|---|
| Air | Dwpt | 6 hour | altimeter (in) | sea level (mb) | 1 hr | 3 hr | 6 hr | ||||||||||
| Max. | Min. | ||||||||||||||||
| 04 | 21:35 | SW 14 | 10.00 | Fair | CLR | 0 | 0 | 0% | 29.73 | 0.0 | |||||||
| 04 | 21:15 | S 13 G 18 | 10.00 | Fair | CLR | 0 | 0 | 0% | 29.73 | 0.0 | |||||||
| 04 | 20:55 | S 15 | 10.00 | Fair | CLR | 0 | 0 | 0% | 29.72 | 0.0 | |||||||
| 04 | 20:35 | S 13 | 10.00 | Fair | CLR | 70 | 50.9 | 51% | 29.72 | 0.0 | |||||||
| 04 | 20:15 | S 12 | 10.00 | Fair | CLR | 71.4 | 50.4 | 48% | 29.72 | 0.0 | |||||||
| 04 | 19:55 | S 12 | 10.00 | Fair | CLR | 0 | 0 | 0% | 29.71 | 0.0 | |||||||
| 04 | 19:35 | S 15 G 18 | 10.00 | Fair | CLR | 73 | 50.2 | 45% | 29.7 | 0.0 | |||||||
| 04 | 19:15 | S 14 G 21 | 10.00 | Fair | CLR | 0 | 0 | 0% | 29.7 | 0.0 | |||||||
| 04 | 18:45 | S 12 G 21 | 10.00 | Partly Cloudy | SCT150 | 75.2 | 48.2 | 39% | 77 | 29.7 | 0.0 | ||||||
| 04 | 17:45 | S 12 G 21 | 10.00 | Partly Cloudy | SCT150 | 75.2 | 48.2 | 39% | 77 | 29.7 | 0.0 | ||||||
| 04 | 16:45 | SW 20 G 26 | 10.00 | Mostly Cloudy | BKN150 | 78.8 | 46.4 | 32% | 79 | 29.73 | 0.0 | ||||||
| 04 | 15:45 | SW 21 G 31 | 10.00 | Mostly Cloudy and Breezy | BKN150 | 80.6 | 46.4 | 30% | 80 | 29.76 | 0.0 | ||||||
| 04 | 14:45 | SW 23 G 33 | 10.00 | Mostly Cloudy and Breezy | BKN150 | 80.6 | 46.4 | 30% | 80 | 29.75 | 0.0 | ||||||
| 04 | 13:45 | SW 22 G 30 | 10.00 | Mostly Cloudy and Breezy | BKN150 | 80.6 | 48.2 | 32% | 80 | 29.75 | 0.0 | ||||||
| 04 | 12:45 | SW 18 G 29 | 10.00 | Mostly Cloudy | BKN150 | 78.8 | 51.8 | 39% | 79 | 29.76 | 0.0 | ||||||
| 04 | 11:45 | SW 18 G 29 | 10.00 | Mostly Cloudy | BKN150 | 78.8 | 51.8 | 39% | 79 | 29.81 | 0.0 | ||||||
| 04 | 10:45 | SW 16 G 26 | 10.00 | A Few Clouds | FEW150 | 75.2 | 51.8 | 44% | 78 | 29.81 | 0.0 | ||||||
| 04 | 09:45 | S 9 | 10.00 | A Few Clouds | FEW150 | 69.8 | 53.6 | 57% | 29.83 | 0.0 | |||||||
| 04 | 08:45 | S 8 | 10.00 | Partly Cloudy | SCT150 | 66.2 | 53.6 | 64% | 29.85 | 0.0 | |||||||
| 04 | 07:45 | S 7 | 10.00 | Mostly Cloudy | BKN150 | 55.4 | 51.8 | 88% | 29.85 | 0.0 | |||||||
| 04 | 06:45 | Calm | 10.00 | Mostly Cloudy | SCT120 BKN150 | 55.4 | 51.8 | 88% | 29.85 | 0.0 | |||||||
| 04 | 06:35 | Calm | 10.00 | Fair | CLR | 55 | 50.9 | 86% | 29.85 | 0.0 | |||||||
| 04 | 06:15 | Calm | 10.00 | Partly Cloudy | SCT120 | 54 | 50.7 | 89% | 29.85 | 0.0 | |||||||
| 04 | 05:55 | Calm | 10.00 | Partly Cloudy | SCT120 | 56.1 | 50.5 | 82% | 29.85 | 0.0 | |||||||
| 04 | 05:35 | Calm | 10.00 | Fair | CLR | 58.5 | 50 | 74% | 29.84 | 0.0 | |||||||
| 04 | 05:15 | Calm | 10.00 | Fair | CLR | 57.2 | 50.2 | 78% | 29.85 | 0.0 | |||||||
| 04 | 04:55 | Calm | 10.00 | Fair | CLR | 57.2 | 49.8 | 77% | 29.85 | 0.0 | |||||||
| 04 | 04:35 | Calm | 10.00 | Fair | CLR | 59.4 | 49.5 | 70% | 29.85 | 0.0 | |||||||
| 04 | 04:15 | Calm | 10.00 | Fair | CLR | 0 | 0 | 0% | 29.85 | 0.0 | |||||||
| 04 | 03:55 | SW 9 | 10.00 | Fair | CLR | 0 | 0 | 0% | 29.84 | 0.0 | |||||||
| 04 | 03:35 | SW 10 | 10.00 | Fair | CLR | 0 | 0 | 0% | 29.83 | 0.0 | |||||||
| 04 | 03:15 | SW 10 | 10.00 | Fair | CLR | 0 | 0 | 0% | 29.83 | 0.0 | |||||||
| 04 | 02:55 | SW 10 | 10.00 | Fair | CLR | 0 | 0 | 0% | 29.83 | 0.0 | |||||||
| 04 | 02:35 | SW 10 | 10.00 | Fair | CLR | 0 | 0 | 0% | 29.83 | 0.0 | |||||||
| 04 | 02:15 | SW 10 | 10.00 | Fair | CLR | 59.9 | 48.4 | 66% | 29.83 | 0.0 | |||||||
| 04 | 01:55 | S 10 | 10.00 | Fair | CLR | 60.4 | 48.2 | 64% | 29.84 | 0.0 | |||||||
| 04 | 01:15 | SW 12 G 18 | 10.00 | Fair | CLR | 0 | 0 | 0% | 29.85 | 0.0 | |||||||
| 04 | 00:55 | SW 12 G 17 | 10.00 | Fair | CLR | 0 | 0 | 0% | 29.85 | 0.0 | |||||||
| 04 | 00:35 | SW 13 G 18 | 10.00 | Fair | CLR | 0 | 0 | 0% | 29.85 | 0.0 | |||||||
| 04 | 00:15 | SW 13 G 20 | 10.00 | Fair | CLR | 0 | 0 | 0% | 29.85 | 0.0 | |||||||
| 03 | 23:55 | SW 14 G 22 | 10.00 | Fair | CLR | 0 | 0 | 0% | 29.86 | 0.0 | |||||||
| 03 | 23:35 | SW 13 G 18 | 10.00 | Fair | CLR | 0 | 0 | 0% | 29.87 | 0.0 | |||||||
| 03 | 23:15 | SW 12 | 10.00 | Fair | CLR | 0 | 0 | 0% | 29.87 | 0.0 | |||||||
| 03 | 22:55 | S 14 G 18 | 10.00 | Fair | CLR | 0 | 0 | 0% | 29.88 | 0.0 | |||||||
| 03 | 22:35 | S 13 G 18 | 10.00 | Fair | CLR | 0 | 0 | 0% | 29.88 | 0.0 | |||||||
| 03 | 22:15 | S 12 | 10.00 | Fair | CLR | 0 | 0 | 0% | 29.89 | 0.0 | |||||||
| 03 | 21:55 | S 10 | 10.00 | Fair | CLR | 0 | 0 | 0% | 29.89 | 0.0 | |||||||
| 03 | 21:35 | S 9 | 10.00 | Fair | CLR | 0 | 0 | 0% | 29.89 | 0.0 | |||||||
| 03 | 21:15 | S 8 | 10.00 | Fair | CLR | 59.9 | 43.2 | 54% | 29.89 | 0.0 | |||||||
| 03 | 20:55 | S 8 | 10.00 | Fair | CLR | 60.3 | 42.6 | 52% | 29.89 | 0.0 | |||||||
| 03 | 20:35 | S 8 | 10.00 | Fair | CLR | 61.5 | 41.9 | 49% | 29.89 | 0.0 | |||||||
| 03 | 20:15 | SW 8 | 10.00 | Fair | CLR | 63.5 | 41 | 44% | 29.89 | 0.0 | |||||||
| 03 | 19:55 | SW 10 | 10.00 | Fair | CLR | 64.9 | 40.3 | 41% | 29.89 | 0.0 | |||||||
| 03 | 19:35 | SW 13 G 18 | 10.00 | Fair | CLR | 65.7 | 40.6 | 40% | 29.89 | 0.0 | |||||||
| 03 | 19:15 | SW 13 G 21 | 10.00 | Fair | CLR | 66.6 | 40.8 | 39% | 29.89 | 0.0 | |||||||
| 03 | 18:45 | SW 18 G 25 | 10.00 | Fair | CLR | 69.8 | 39.2 | 33% | 29.88 | 0.0 | |||||||
| 03 | 17:45 | SW 17 G 28 | 10.00 | Fair | CLR | 69.8 | 39.2 | 33% | 29.89 | 0.0 | |||||||
| 03 | 16:45 | SW 23 G 30 | 10.00 | Fair and Breezy | CLR | 69.8 | 39.2 | 33% | 29.92 | 0.0 | |||||||
| 03 | 15:45 | SW 23 G 30 | 10.00 | Fair and Breezy | CLR | 69.8 | 39.2 | 33% | 29.96 | 0.0 | |||||||
| 03 | 14:45 | S 18 G 25 | 10.00 | Fair | CLR | 68 | 39.2 | 35% | 30.01 | 0.0 | |||||||
| 03 | 13:45 | S 18 G 25 | 10.00 | Fair | CLR | 66.2 | 39.2 | 37% | 30.04 | 0.0 | |||||||
| 03 | 12:45 | SW 18 G 33 | 10.00 | Fair | CLR | 64.4 | 41 | 43% | 30.07 | 0.0 | |||||||
| 03 | 11:45 | S 16 G 24 | 10.00 | Fair | CLR | 62.6 | 41 | 45% | 30.11 | 0.0 | |||||||
| 03 | 10:45 | S 17 | 10.00 | Fair | CLR | 60.8 | 39.2 | 45% | 30.13 | 0.0 | |||||||
| 03 | 09:45 | S 10 | 10.00 | Fair | CLR | 53.6 | 42.8 | 67% | 30.14 | 0.0 | |||||||
| 03 | 08:45 | S 10 | 10.00 | Fair | CLR | 53.6 | 42.8 | 67% | 30.14 | 0.0 | |||||||
| 03 | 06:45 | Calm | 10.00 | Fair | CLR | 42.8 | 39.2 | 87% | 30.14 | 0.0 | |||||||
| 03 | 06:35 | SW 3 | 10.00 | Fair | CLR | 0 | 0 | 0% | 30.14 | 0.0 | |||||||
| 03 | 06:15 | Calm | 10.00 | Fair | CLR | 0 | 0 | 0% | 30.13 | 0.0 | |||||||
| 03 | 05:55 | Calm | 10.00 | Fair | CLR | 0 | 0 | 0% | 30.13 | 0.0 | |||||||
| 03 | 05:35 | Calm | 10.00 | Fair | CLR | 0 | 0 | 0% | 30.13 | 0.0 | |||||||
| 03 | 05:15 | S 3 | 10.00 | Fair | CLR | 0 | 0 | 0% | 30.14 | 0.0 | |||||||
| 03 | 04:55 | Calm | 10.00 | Fair | CLR | 0 | 0 | 0% | 30.14 | 0.0 | |||||||
| 03 | 04:35 | Calm | 10.00 | Fair | CLR | 0 | 0 | 0% | 30.14 | 0.0 | |||||||
| 03 | 04:15 | Calm | 10.00 | Fair | CLR | 0 | 0 | 0% | 30.13 | 0.0 | |||||||
| 03 | 03:55 | Calm | 10.00 | Fair | CLR | 0 | 0 | 0% | 30.13 | 0.0 | |||||||
| 03 | 03:35 | SW 3 | 10.00 | Fair | CLR | 0 | 0 | 0% | 30.13 | 0.0 | |||||||
| 03 | 03:15 | Calm | 10.00 | Fair | CLR | 0 | 0 | 0% | 30.13 | 0.0 | |||||||
| 03 | 02:55 | SW 3 | 10.00 | Fair | CLR | 0 | 0 | 0% | 30.13 | 0.0 | |||||||
| 03 | 02:35 | Calm | 10.00 | Fair | CLR | 0 | 0 | 0% | 30.13 | 0.0 | |||||||
| 03 | 02:15 | Calm | 10.00 | Fair | CLR | 0 | 0 | 0% | 30.13 | 0.0 | |||||||
| 03 | 01:55 | Calm | 10.00 | Fair | CLR | 0 | 0 | 0% | 30.13 | 0.0 | |||||||
| 03 | 01:35 | Calm | 10.00 | Fair | CLR | 0 | 0 | 0% | 30.14 | 0.0 | |||||||
| 03 | 01:15 | Calm | 10.00 | Fair | CLR | 0 | 0 | 0% | 30.14 | 0.0 | |||||||
| 03 | 00:55 | Calm | 10.00 | Fair | CLR | 0 | 0 | 0% | 30.14 | 0.0 | |||||||
| 03 | 00:35 | Calm | 10.00 | Fair | CLR | 0 | 0 | 0% | 30.14 | 0.0 | |||||||
| 03 | 00:15 | Calm | 10.00 | Fair | CLR | 0 | 0 | 0% | 30.14 | 0.0 | |||||||
| 02 | 23:55 | Calm | 10.00 | Fair | CLR | 0 | 0 | 0% | 30.14 | 0.0 | |||||||
| 02 | 23:35 | Calm | 10.00 | Fair | CLR | 0 | 0 | 0% | 30.13 | 0.0 | |||||||
| 02 | 23:15 | Calm | 10.00 | Fair | CLR | 0 | 0 | 0% | 30.13 | 0.0 | |||||||
| 02 | 22:55 | Calm | 10.00 | Fair | CLR | 42.4 | 42.4 | 100% | 30.13 | 0.0 | |||||||
| 02 | 22:35 | Calm | 10.00 | Fair | CLR | 42.1 | 42.1 | 100% | 30.14 | 0.0 | |||||||
| 02 | 22:15 | Calm | 10.00 | Fair | CLR | 42.6 | 42.6 | 100% | 30.14 | 0.0 | |||||||
| 02 | 21:55 | Calm | 10.00 | Fair | CLR | 43.7 | 43.7 | 100% | 30.13 | 0.0 | |||||||
| 02 | 21:35 | Calm | 10.00 | Fair | CLR | 44.1 | 44.1 | 100% | 30.13 | 0.0 | |||||||
| 02 | 21:15 | Calm | 10.00 | Fair | CLR | 44.2 | 44.2 | 100% | 30.13 | 0.0 | |||||||
| 02 | 20:55 | Calm | 10.00 | Fair | CLR | 45 | 44.2 | 97% | 30.12 | 0.0 | |||||||
| 02 | 20:35 | Calm | 10.00 | Fair | CLR | 45.5 | 45.1 | 99% | 30.12 | 0.0 | |||||||
| 02 | 20:15 | Calm | 10.00 | Partly Cloudy | SCT080 | 46.2 | 45.5 | 97% | 30.11 | 0.0 | |||||||
| 02 | 19:55 | Calm | 10.00 | Partly Cloudy | SCT080 | 47.7 | 45 | 90% | 30.11 | 0.0 | |||||||
| 02 | 19:35 | Calm | 10.00 | Fair | CLR | 49.8 | 44.1 | 81% | 30.11 | 0.0 | |||||||
| 02 | 19:15 | Calm | 10.00 | Partly Cloudy | SCT050 | 53.2 | 41.4 | 64% | 30.11 | 0.0 | |||||||
| 02 | 18:45 | NE 5 | 10.00 | Partly Cloudy | SCT050 | 55.4 | 37.4 | 51% | 30.1 | 0.0 | |||||||
| 02 | 17:45 | Calm | 10.00 | Partly Cloudy | SCT100 | 55.4 | 42.8 | 63% | 30.1 | 0.0 | |||||||
| 02 | 16:45 | N 6 | 10.00 | Mostly Cloudy | SCT070 BKN080 | 51.8 | 44.6 | 77% | 30.1 | 0.0 | |||||||
| 02 | 15:45 | NW 12 | 10.00 | Overcast | BKN034 BKN048 OVC055 | 48.2 | 44.6 | 87% | 44 | 30.11 | 0.0 | ||||||
| 02 | 14:45 | NE 13 G 17 | 10.00 | Overcast | BKN044 BKN060 OVC075 | 59 | 41 | 51% | 30.08 | 0.0 | |||||||
| 02 | 13:45 | W 9 | 10.00 | Overcast | SCT030 SCT048 OVC100 | 51.8 | 39.2 | 62% | 30.09 | 0.0 | |||||||
| 02 | 12:45 | NE 23 G 30 | 10.00 | Partly Cloudy and Breezy | SCT050 SCT120 | 55.4 | 44.6 | 67% | 30.08 | 0.0 | |||||||
| 02 | 11:45 | N 9 | 10.00 | Mostly Cloudy | BKN046 BKN060 | 57.2 | 42.8 | 59% | 30.07 | 0.0 | |||||||
| 02 | 10:45 | E 5 | 10.00 | Partly Cloudy | SCT070 SCT090 | 57.2 | 42.8 | 59% | 30.06 | 0.0 | |||||||
| 02 | 09:45 | E 5 | 10.00 | Partly Cloudy | SCT050 | 55.4 | 41 | 59% | 30.06 | 0.0 | |||||||
| 02 | 08:45 | NE 5 | 10.00 | Mostly Cloudy | BKN070 | 53.6 | 42.8 | 67% | 30.07 | 0.0 | |||||||
| 02 | 07:45 | SE 5 | 10.00 | Partly Cloudy | SCT100 | 48.2 | 44.6 | 87% | 47 | 30.06 | 0.0 | ||||||
| 02 | 06:45 | Calm | 10.00 | Overcast | BKN075 OVC100 | 44.6 | 42.8 | 93% | 30.05 | 0.0 | |||||||
| 02 | 06:35 | Calm | 10.00 | Mostly Cloudy | SCT075 BKN090 | 0 | 0 | 0% | 30.06 | 0.0 | |||||||
| 02 | 06:15 | Calm | 10.00 | Mostly Cloudy | SCT075 BKN090 | 0 | 0 | 0% | 30.05 | 0.0 | |||||||
| 02 | 05:55 | N 3 | 10.00 | Partly Cloudy | SCT090 | 0 | 0 | 0% | 30.05 | 0.0 | |||||||
| 02 | 05:35 | N 3 | 10.00 | Mostly Cloudy | SCT090 BKN110 | 0 | 0 | 0% | 30.05 | 0.0 | |||||||
| 02 | 05:15 | Calm | 10.00 | Overcast | BKN080 OVC100 | 43.2 | 43.2 | 100% | 30.05 | 0.0 | |||||||
| 02 | 04:55 | Calm | 10.00 | Overcast | OVC080 | 0 | 0 | 0% | 30.05 | 0.0 | |||||||
| 02 | 04:35 | Calm | 10.00 | Mostly Cloudy | BKN080 | 41.4 | 41.4 | 100% | 30.04 | 0.0 | |||||||
| 02 | 04:15 | Calm | 10.00 | Mostly Cloudy | BKN080 | 42.1 | 42.1 | 100% | 30.04 | 0.0 | |||||||
| 02 | 03:55 | Calm | 10.00 | Overcast | OVC080 | 41.9 | 41.9 | 100% | 30.04 | 0.0 | |||||||
| 02 | 03:35 | Calm | 10.00 | Partly Cloudy | SCT080 | 41.4 | 41.4 | 100% | 30.04 | 0.0 | |||||||
| 02 | 03:15 | Calm | 10.00 | Mostly Cloudy | BKN080 | 42.1 | 42.1 | 100% | 30.04 | 0.0 | |||||||
| 02 | 02:55 | Calm | 10.00 | Mostly Cloudy | BKN080 | 41.4 | 41 | 99% | 30.04 | 0.0 | |||||||
| 02 | 02:35 | Calm | 10.00 | Fair | CLR | 41.9 | 41.7 | 99% | 30.04 | 0.0 | |||||||
| 02 | 02:15 | Calm | 10.00 | Fair | CLR | 41.4 | 41 | 99% | 30.05 | 0.0 | |||||||
| 02 | 01:55 | Calm | 10.00 | Fair | CLR | 42.6 | 40.8 | 93% | 30.05 | 0.0 | |||||||
| 02 | 01:35 | Calm | 10.00 | Fair | CLR | 42.3 | 41.2 | 96% | 30.04 | 0.0 | |||||||
| 02 | 01:15 | Calm | 10.00 | Fair | CLR | 43.2 | 39.6 | 87% | 30.05 | 0.0 | |||||||
| 02 | 00:55 | Calm | 10.00 | Fair | CLR | 41.9 | 40.6 | 58.3 | 41.9 | 95% | 30.05 | 0.0 | |||||
| 02 | 00:35 | Calm | 10.00 | Fair | CLR | 43.2 | 41 | 92% | 30.05 | 0.0 | |||||||
| 02 | 00:15 | Calm | 10.00 | Fair | CLR | 43.7 | 40.5 | 88% | 30.05 | 0.0 | |||||||
| 01 | 23:55 | Calm | 10.00 | Fair | CLR | 43.7 | 39.2 | 84% | 30.05 | 0.0 | |||||||
| 01 | 23:35 | Calm | 10.00 | Fair | CLR | 43.7 | 40.1 | 87% | 30.06 | 0.0 | |||||||
| 01 | 23:15 | Calm | 10.00 | Fair | CLR | 44.4 | 38.5 | 80% | 30.06 | 0.0 | |||||||
| 01 | 22:55 | Calm | 10.00 | Fair | CLR | 44.6 | 40.1 | 84% | 30.07 | 0.0 | |||||||
| 01 | 22:35 | Calm | 10.00 | Fair | CLR | 45 | 39 | 80% | 30.07 | 0.0 | |||||||
| 01 | 22:15 | Calm | 10.00 | Fair | CLR | 45.5 | 38.7 | 77% | 30.07 | 0.0 | |||||||
| 01 | 21:55 | Calm | 10.00 | Fair | CLR | 45.7 | 38.7 | 77% | 30.08 | 0.0 | |||||||
| Date | Time (cdt) | Wind (mph) | Vis. (mi.) | Weather | Sky Cond. | Air | Dwpt | Max. | Min. | Relative Humidity | Wind Chill (°F) | Heat Index (°F) | altimeter (in) | sea level (mb) | 1 hr | 3 hr | 6 hr |
| 6 hour | |||||||||||||||||
| Temperature (ºF) | Pressure | Precipitation (in) | |||||||||||||||